Time;durP1;ratioP1;P1;durP2;ratioP2;P2;SDS_P1;SDS_P2;PMS_P1;PMS_P2;Temp;Humidity;BMP_temperature;BMP_pressure;BME280_temperature;BME280_humidity;BME280_pressure;Samples;Min_cycle;Max_cycle;Signal;HPM_P1;HPM_P2
2023/08/12 00:00:30;;;;;;;8.80;6.32;;;;;;;;;;5013592;28;20026;-77
2023/08/12 00:02:56;;;;;;;9.43;5.22;;;;;;;;;;5011766;28;20044;-77
2023/08/12 00:05:22;;;;;;;7.68;5.22;;;;;;;;;;5027601;28;20048;-78
2023/08/12 00:07:48;;;;;;;9.88;5.97;;;;;;;;;;5012416;28;20506;-77
2023/08/12 00:10:15;;;;;;;6.97;5.22;;;;;;;;;;5010840;28;20725;-77
2023/08/12 00:12:42;;;;;;;5.45;4.82;;;;;;;;;;5011158;28;20112;-77
2023/08/12 00:15:10;;;;;;;10.85;5.35;;;;;;;;;;5012376;28;20101;-76
2023/08/12 00:17:37;;;;;;;6.88;5.05;;;;;;;;;;5012176;28;20032;-78
2023/08/12 00:20:06;;;;;;;10.40;5.32;;;;;;;;;;5012176;28;20029;-79
2023/08/12 00:22:32;;;;;;;8.32;5.97;;;;;;;;;;5011809;28;20018;-77
2023/08/12 00:24:58;;;;;;;8.18;5.60;;;;;;;;;;5011429;28;20080;-77
2023/08/12 00:27:24;;;;;;;7.15;5.40;;;;;;;;;;5009876;28;20048;-77
2023/08/12 00:29:50;;;;;;;8.98;5.13;;;;;;;;;;5012057;28;20049;-76
2023/08/12 00:32:15;;;;;;;5.93;5.20;;;;;;;;;;5027007;28;20024;-77
2023/08/12 00:34:43;;;;;;;10.65;5.25;;;;;;;;;;5010498;28;20056;-76
2023/08/12 00:37:09;;;;;;;9.15;5.43;;;;;;;;;;5027483;28;20033;-77
2023/08/12 00:39:38;;;;;;;8.55;5.57;;;;;;;;;;4994293;28;20062;-76
2023/08/12 00:42:05;;;;;;;9.88;5.65;;;;;;;;;;5011147;28;20036;-77
2023/08/12 00:44:31;;;;;;;10.88;5.22;;;;;;;;;;5010869;28;20117;-78
2023/08/12 00:46:59;;;;;;;9.35;5.80;;;;;;;;;;5012729;28;20057;-77
2023/08/12 00:49:26;;;;;;;6.10;5.15;;;;;;;;;;4995971;28;20465;-76
2023/08/12 00:51:53;;;;;;;9.90;5.60;;;;;;;;;;5013698;28;20030;-76
2023/08/12 00:54:21;;;;;;;14.40;5.28;;;;;;;;;;5016333;28;20025;-78
2023/08/12 00:56:49;;;;;;;9.38;5.90;;;;;;;;;;5019983;28;20121;-76
2023/08/12 00:59:17;;;;;;;9.30;5.95;;;;;;;;;;5044252;28;20026;-77
2023/08/12 01:01:44;;;;;;;9.57;6.18;;;;;;;;;;5026195;28;20025;-75
2023/08/12 01:04:10;;;;;;;7.30;5.97;;;;;;;;;;5032084;28;20026;-78
2023/08/12 01:06:36;;;;;;;8.13;5.40;;;;;;;;;;5026287;28;20045;-77
2023/08/12 01:09:05;;;;;;;6.75;5.55;;;;;;;;;;5010893;28;20025;-77
2023/08/12 01:11:49;;;;;;;6.70;5.57;;;;;;;;;;5010969;28;20029;-78
2023/08/12 01:14:23;;;;;;;6.70;5.40;;;;;;;;;;5010892;28;20025;-78
2023/08/12 01:16:55;;;;;;;10.65;5.57;;;;;;;;;;5009316;28;20486;-79
2023/08/12 01:19:36;;;;;;;7.93;5.65;;;;;;;;;;5009852;28;20124;-78
2023/08/12 01:22:03;;;;;;;9.20;5.97;;;;;;;;;;5026269;28;20038;-77
2023/08/12 01:24:40;;;;;;;11.10;5.72;;;;;;;;;;5009504;28;20528;-78
2023/08/12 01:27:06;;;;;;;13.57;6.03;;;;;;;;;;5026734;28;20065;-78
2023/08/12 01:29:34;;;;;;;8.93;6.07;;;;;;;;;;5011251;28;20029;-77
2023/08/12 01:32:28;;;;;;;8.57;6.40;;;;;;;;;;5010101;28;20037;-77
2023/08/12 01:35:05;;;;;;;11.30;6.00;;;;;;;;;;5009260;28;20030;-77
2023/08/12 01:37:33;;;;;;;9.07;5.85;;;;;;;;;;5010152;28;20133;-77
2023/08/12 01:40:04;;;;;;;7.80;5.75;;;;;;;;;;5030294;28;20034;-77
2023/08/12 01:42:32;;;;;;;6.90;6.20;;;;;;;;;;5014770;28;20026;-76
2023/08/12 01:44:59;;;;;;;7.05;5.93;;;;;;;;;;5015333;28;20107;-77
2023/08/12 01:47:25;;;;;;;10.65;6.28;;;;;;;;;;5014618;28;20512;-77
2023/08/12 01:49:51;;;;;;;8.60;5.90;;;;;;;;;;5014755;28;20026;-77
2023/08/12 01:52:16;;;;;;;7.35;6.30;;;;;;;;;;5016205;28;20463;-76
2023/08/12 01:54:42;;;;;;;7.47;6.10;;;;;;;;;;5030259;28;20040;-76
2023/08/12 01:57:08;;;;;;;6.97;6.00;;;;;;;;;;5014691;28;20057;-77
2023/08/12 01:59:35;;;;;;;12.20;6.70;;;;;;;;;;5016268;28;20486;-77
2023/08/12 02:02:05;;;;;;;9.35;5.60;;;;;;;;;;5032683;28;20042;-78
2023/08/12 02:04:30;;;;;;;8.38;5.93;;;;;;;;;;5012913;28;20034;-76
2023/08/12 02:06:56;;;;;;;7.15;5.22;;;;;;;;;;5013913;28;20497;-79
2023/08/12 02:09:23;;;;;;;7.95;5.97;;;;;;;;;;5014379;28;20030;-79
2023/08/12 02:11:50;;;;;;;13.55;5.40;;;;;;;;;;4996541;28;20032;-78
2023/08/12 02:14:15;;;;;;;8.68;5.60;;;;;;;;;;5013040;28;20029;-79
2023/08/12 02:16:41;;;;;;;5.97;5.18;;;;;;;;;;5014939;28;20029;-79
2023/08/12 02:19:09;;;;;;;8.00;5.90;;;;;;;;;;5013526;28;20021;-77
2023/08/12 02:21:34;;;;;;;7.45;5.45;;;;;;;;;;5012497;28;20033;-77
2023/08/12 02:24:00;;;;;;;9.63;6.07;;;;;;;;;;5014631;28;20030;-76
2023/08/12 02:26:26;;;;;;;7.18;5.60;;;;;;;;;;5013888;28;20077;-78
2023/08/12 02:28:52;;;;;;;10.00;5.38;;;;;;;;;;5014157;28;20169;-77
2023/08/12 02:31:17;;;;;;;9.05;5.28;;;;;;;;;;5028854;28;20060;-77
2023/08/12 02:33:43;;;;;;;8.05;5.40;;;;;;;;;;5029252;28;20601;-77
2023/08/12 02:36:09;;;;;;;7.53;5.82;;;;;;;;;;5012446;28;20133;-79
2023/08/12 02:38:35;;;;;;;7.35;5.63;;;;;;;;;;5012036;28;20026;-77
2023/08/12 02:41:05;;;;;;;6.10;5.10;;;;;;;;;;5013714;28;20053;-79
2023/08/12 02:43:31;;;;;;;6.18;5.55;;;;;;;;;;5012553;28;20474;-77
2023/08/12 02:45:57;;;;;;;8.05;6.07;;;;;;;;;;4996035;28;20026;-78
2023/08/12 02:48:25;;;;;;;6.85;5.40;;;;;;;;;;5013042;28;20038;-78
2023/08/12 02:50:51;;;;;;;8.30;5.43;;;;;;;;;;5012111;28;20431;-78
2023/08/12 02:53:17;;;;;;;7.68;5.68;;;;;;;;;;5013945;28;20041;-77
2023/08/12 02:55:45;;;;;;;6.55;5.13;;;;;;;;;;5013577;28;20115;-79
2023/08/12 02:58:12;;;;;;;6.97;5.95;;;;;;;;;;5012773;28;20371;-77
2023/08/12 03:00:43;;;;;;;9.15;5.28;;;;;;;;;;5011926;28;20466;-79
2023/08/12 03:03:09;;;;;;;11.95;5.55;;;;;;;;;;5012043;28;20526;-77
2023/08/12 03:05:37;;;;;;;7.25;5.05;;;;;;;;;;5028409;28;20136;-77
2023/08/12 03:08:04;;;;;;;5.90;5.20;;;;;;;;;;5012149;28;20053;-77
2023/08/12 03:10:31;;;;;;;7.78;5.30;;;;;;;;;;5013123;28;20128;-80
2023/08/12 03:12:59;;;;;;;6.20;4.72;;;;;;;;;;5014208;28;20033;-78
2023/08/12 03:15:25;;;;;;;9.50;6.78;;;;;;;;;;5014663;28;20033;-77
2023/08/12 03:17:50;;;;;;;6.45;4.90;;;;;;;;;;5016872;28;20037;-79
2023/08/12 03:20:17;;;;;;;8.63;5.30;;;;;;;;;;5017976;28;20026;-78
2023/08/12 03:22:42;;;;;;;7.47;5.40;;;;;;;;;;5018489;28;20022;-76
2023/08/12 03:25:09;;;;;;;5.90;5.30;;;;;;;;;;5022334;28;20145;-77
2023/08/12 03:27:34;;;;;;;7.45;5.75;;;;;;;;;;5005355;28;20033;-78
2023/08/12 03:30:00;;;;;;;8.07;5.72;;;;;;;;;;5022449;28;20061;-76
2023/08/12 03:32:26;;;;;;;12.15;6.00;;;;;;;;;;5016666;28;20495;-77
2023/08/12 03:34:52;;;;;;;6.72;5.53;;;;;;;;;;5012690;28;20036;-77
2023/08/12 03:37:19;;;;;;;9.07;5.60;;;;;;;;;;5013311;28;20026;-77
2023/08/12 03:39:45;;;;;;;8.57;5.88;;;;;;;;;;5011543;28;20018;-77
2023/08/12 03:42:11;;;;;;;9.43;6.35;;;;;;;;;;5027393;28;20134;-78
2023/08/12 03:44:36;;;;;;;8.10;5.07;;;;;;;;;;5010768;28;20439;-77
2023/08/12 03:47:02;;;;;;;9.88;6.03;;;;;;;;;;5012355;28;20029;-77
2023/08/12 03:49:28;;;;;;;10.23;5.95;;;;;;;;;;5011021;28;20022;-78
2023/08/12 03:51:54;;;;;;;6.90;5.57;;;;;;;;;;5012787;28;20022;-78
2023/08/12 03:54:20;;;;;;;8.00;6.63;;;;;;;;;;5010943;28;20033;-78
2023/08/12 03:56:46;;;;;;;8.68;6.18;;;;;;;;;;5012583;28;20037;-77
2023/08/12 03:59:12;;;;;;;11.27;8.00;;;;;;;;;;5012627;28;20136;-79
2023/08/12 04:01:38;;;;;;;9.07;6.05;;;;;;;;;;5012349;28;20110;-77
2023/08/12 04:04:04;;;;;;;11.02;6.15;;;;;;;;;;5011435;28;20104;-76
2023/08/12 04:06:30;;;;;;;8.43;5.85;;;;;;;;;;5013176;28;20041;-78
2023/08/12 04:08:57;;;;;;;11.00;6.80;;;;;;;;;;5011715;28;20030;-77
2023/08/12 04:11:23;;;;;;;6.35;5.72;;;;;;;;;;5010965;28;20769;-77
2023/08/12 04:13:49;;;;;;;10.85;5.90;;;;;;;;;;5010064;28;20030;-78
2023/08/12 04:16:18;;;;;;;9.85;6.65;;;;;;;;;;4993825;28;20036;-78
2023/08/12 04:18:43;;;;;;;7.28;5.78;;;;;;;;;;5010329;28;20030;-78
2023/08/12 04:21:10;;;;;;;10.88;6.43;;;;;;;;;;5010813;28;20088;-78
2023/08/12 04:23:36;;;;;;;12.88;6.20;;;;;;;;;;5012021;28;20038;-81
2023/08/12 04:26:02;;;;;;;9.13;6.90;;;;;;;;;;5011110;28;20054;-79
2023/08/12 04:28:28;;;;;;;9.57;6.43;;;;;;;;;;5017672;28;20087;-80
2023/08/12 04:30:54;;;;;;;12.35;6.45;;;;;;;;;;5025204;28;20061;-79
2023/08/12 04:33:20;;;;;;;9.70;6.28;;;;;;;;;;5014696;28;20041;-83
2023/08/12 04:35:46;;;;;;;6.75;6.05;;;;;;;;;;5016865;28;20029;-79
2023/08/12 04:38:13;;;;;;;9.60;6.60;;;;;;;;;;5030139;28;20050;-81
2023/08/12 04:40:40;;;;;;;8.48;6.35;;;;;;;;;;5013797;28;20038;-80
2023/08/12 04:43:06;;;;;;;7.53;6.22;;;;;;;;;;5029135;28;20029;-79
2023/08/12 04:45:33;;;;;;;6.80;6.10;;;;;;;;;;5032062;28;20025;-81
2023/08/12 04:47:59;;;;;;;7.45;6.63;;;;;;;;;;5033627;28;20535;-81
2023/08/12 04:50:25;;;;;;;16.23;6.53;;;;;;;;;;5032452;28;20036;-81
2023/08/12 04:52:51;;;;;;;9.20;5.45;;;;;;;;;;5034515;28;20044;-77
2023/08/12 04:55:18;;;;;;;8.18;5.45;;;;;;;;;;5033404;28;20036;-78
2023/08/12 04:57:44;;;;;;;6.32;5.35;;;;;;;;;;5037135;28;20397;-77
2023/08/12 05:00:10;;;;;;;8.32;5.90;;;;;;;;;;5037016;28;20051;-76
2023/08/12 05:02:36;;;;;;;9.43;6.60;;;;;;;;;;5020259;28;20025;-78
2023/08/12 05:05:02;;;;;;;11.82;6.80;;;;;;;;;;5032709;28;20167;-76
2023/08/12 05:07:28;;;;;;;10.20;5.93;;;;;;;;;;5031669;28;20520;-78
2023/08/12 05:09:53;;;;;;;8.48;6.13;;;;;;;;;;5032009;28;20029;-77
2023/08/12 05:12:20;;;;;;;9.63;5.97;;;;;;;;;;5033097;28;20036;-77
2023/08/12 05:14:46;;;;;;;6.88;5.43;;;;;;;;;;5056995;28;20029;-79
2023/08/12 05:17:11;;;;;;;8.32;5.90;;;;;;;;;;5049085;28;20034;-77
2023/08/12 05:19:38;;;;;;;9.07;6.20;;;;;;;;;;5044428;28;20033;-78
2023/08/12 05:22:04;;;;;;;6.80;6.13;;;;;;;;;;5035634;28;20025;-77
2023/08/12 05:24:30;;;;;;;6.30;5.47;;;;;;;;;;5030592;28;20038;-78
2023/08/12 05:26:56;;;;;;;6.85;6.15;;;;;;;;;;5029874;28;20111;-77
2023/08/12 05:29:23;;;;;;;13.18;6.63;;;;;;;;;;5032049;28;20107;-78
2023/08/12 05:31:48;;;;;;;11.25;6.35;;;;;;;;;;5047016;28;20586;-77
2023/08/12 05:34:15;;;;;;;7.30;5.80;;;;;;;;;;5032168;28;20125;-77
2023/08/12 05:36:41;;;;;;;7.13;6.43;;;;;;;;;;5030970;28;20512;-78
2023/08/12 05:39:07;;;;;;;7.93;6.80;;;;;;;;;;5032317;28;20033;-77
2023/08/12 05:41:34;;;;;;;10.20;6.95;;;;;;;;;;5033213;28;20029;-77
2023/08/12 05:44:00;;;;;;;10.45;6.05;;;;;;;;;;5048414;28;20033;-78
2023/08/12 05:46:26;;;;;;;7.10;6.40;;;;;;;;;;5033356;28;20025;-78
2023/08/12 05:48:53;;;;;;;7.60;6.57;;;;;;;;;;5035547;28;20028;-78
2023/08/12 05:51:20;;;;;;;10.40;6.15;;;;;;;;;;5050588;28;20065;-78
2023/08/12 05:53:46;;;;;;;8.25;6.60;;;;;;;;;;5035609;28;20052;-77
2023/08/12 05:56:11;;;;;;;12.43;6.72;;;;;;;;;;5035939;28;20087;-77
2023/08/12 05:58:37;;;;;;;8.70;6.93;;;;;;;;;;5038422;28;20089;-78
2023/08/12 06:01:03;;;;;;;7.90;6.10;;;;;;;;;;5042621;28;20022;-76
2023/08/12 06:03:30;;;;;;;8.43;5.78;;;;;;;;;;5025960;28;20535;-78
2023/08/12 06:05:56;;;;;;;8.18;5.47;;;;;;;;;;5042302;28;20040;-77
2023/08/12 06:08:22;;;;;;;6.07;5.32;;;;;;;;;;5041712;28;20116;-78
2023/08/12 06:10:48;;;;;;;7.88;5.85;;;;;;;;;;5042442;28;20029;-77
2023/08/12 06:13:16;;;;;;;7.35;5.47;;;;;;;;;;5039174;28;20490;-76
2023/08/12 06:15:42;;;;;;;10.40;5.82;;;;;;;;;;5018509;28;20056;-77
2023/08/12 06:18:08;;;;;;;12.20;6.18;;;;;;;;;;5029775;28;20110;-77
2023/08/12 06:20:34;;;;;;;15.38;6.25;;;;;;;;;;5033362;28;20473;-78
2023/08/12 06:23:00;;;;;;;9.32;5.53;;;;;;;;;;5028740;28;20394;-78
2023/08/12 06:25:27;;;;;;;6.57;5.43;;;;;;;;;;5033687;28;20054;-77
2023/08/12 06:27:53;;;;;;;10.45;6.30;;;;;;;;;;5034359;28;20037;-78
2023/08/12 06:30:21;;;;;;;8.65;5.70;;;;;;;;;;5033828;28;20025;-78
2023/08/12 06:32:47;;;;;;;13.40;5.53;;;;;;;;;;5032351;28;20140;-78
2023/08/12 06:35:13;;;;;;;6.40;5.50;;;;;;;;;;5049342;28;20160;-78
2023/08/12 06:37:40;;;;;;;9.85;5.53;;;;;;;;;;5050016;28;20060;-79
2023/08/12 06:40:08;;;;;;;7.43;5.38;;;;;;;;;;5033375;28;20026;-78
2023/08/12 06:42:34;;;;;;;7.00;5.25;;;;;;;;;;5017019;28;20095;-78
2023/08/12 06:45:00;;;;;;;6.75;4.43;;;;;;;;;;5016947;28;20466;-77
2023/08/12 06:47:27;;;;;;;15.50;7.10;;;;;;;;;;5032586;28;20558;-78
2023/08/12 06:49:53;;;;;;;8.63;4.82;;;;;;;;;;5033084;28;20394;-78
2023/08/12 06:52:20;;;;;;;8.35;5.18;;;;;;;;;;5033266;28;20425;-78
2023/08/12 06:54:46;;;;;;;6.80;5.20;;;;;;;;;;5033708;28;20025;-78
2023/08/12 06:57:15;;;;;;;11.55;5.30;;;;;;;;;;5033321;28;20442;-79
2023/08/12 06:59:41;;;;;;;6.85;4.50;;;;;;;;;;5049804;28;20107;-77
2023/08/12 07:02:07;;;;;;;7.07;4.38;;;;;;;;;;5033544;28;20374;-78
2023/08/12 07:04:33;;;;;;;6.25;4.53;;;;;;;;;;5049960;28;20041;-76
2023/08/12 07:06:59;;;;;;;52.05;20.77;;;;;;;;;;5049159;28;20109;-77
2023/08/12 07:09:25;;;;;;;8.23;5.00;;;;;;;;;;5032727;28;20642;-77
2023/08/12 07:11:51;;;;;;;8.20;4.88;;;;;;;;;;5033068;28;20041;-78
2023/08/12 07:14:16;;;;;;;7.32;4.72;;;;;;;;;;5033666;28;20029;-76
2023/08/12 07:16:42;;;;;;;4.80;4.30;;;;;;;;;;5035160;28;20040;-76
2023/08/12 07:19:07;;;;;;;9.38;4.43;;;;;;;;;;5051369;28;20033;-76
2023/08/12 07:21:33;;;;;;;6.28;4.60;;;;;;;;;;5035506;28;20045;-76
2023/08/12 07:23:58;;;;;;;7.88;5.03;;;;;;;;;;5033671;28;20063;-77
2023/08/12 07:26:24;;;;;;;9.70;5.40;;;;;;;;;;5034445;28;20080;-77
2023/08/12 07:28:49;;;;;;;10.50;4.88;;;;;;;;;;5033603;28;20032;-77
2023/08/12 07:31:15;;;;;;;13.95;4.63;;;;;;;;;;5031119;28;20030;-77
2023/08/12 07:33:42;;;;;;;5.97;4.07;;;;;;;;;;5032469;28;20103;-78
2023/08/12 07:36:07;;;;;;;5.50;4.43;;;;;;;;;;5031499;28;20036;-78
2023/08/12 07:38:33;;;;;;;6.32;4.85;;;;;;;;;;5030987;28;20030;-78
2023/08/12 07:40:58;;;;;;;6.10;4.43;;;;;;;;;;5031705;28;20045;-77
2023/08/12 07:43:24;;;;;;;7.80;4.88;;;;;;;;;;5030541;28;20101;-76
2023/08/12 07:45:54;;;;;;;7.72;4.93;;;;;;;;;;5046965;28;20024;-77
2023/08/12 07:48:20;;;;;;;9.00;4.25;;;;;;;;;;5032184;28;20021;-77
2023/08/12 07:50:48;;;;;;;5.03;4.50;;;;;;;;;;5031920;28;20110;-78
2023/08/12 07:53:15;;;;;;;6.85;5.25;;;;;;;;;;5031934;28;20025;-77
2023/08/12 07:55:41;;;;;;;15.77;5.57;;;;;;;;;;5030091;28;20029;-76
2023/08/12 07:58:07;;;;;;;5.00;4.38;;;;;;;;;;5030084;28;20025;-76
2023/08/12 08:00:33;;;;;;;6.13;4.78;;;;;;;;;;5030227;28;20025;-77
2023/08/12 08:02:59;;;;;;;4.95;4.30;;;;;;;;;;5047270;28;20051;-78
2023/08/12 08:05:25;;;;;;;9.32;4.75;;;;;;;;;;5046362;28;20389;-77
2023/08/12 08:07:52;;;;;;;6.20;4.25;;;;;;;;;;5046304;28;20017;-78
2023/08/12 08:10:17;;;;;;;9.60;4.78;;;;;;;;;;5031095;28;20018;-77
2023/08/12 08:12:43;;;;;;;11.68;4.75;;;;;;;;;;5031641;28;20140;-78
2023/08/12 08:15:09;;;;;;;8.52;4.57;;;;;;;;;;5031618;28;20142;-77
2023/08/12 08:17:34;;;;;;;29.05;16.95;;;;;;;;;;5046690;28;20030;-78
2023/08/12 08:20:00;;;;;;;5.10;4.40;;;;;;;;;;5031378;28;20033;-77
2023/08/12 08:22:25;;;;;;;6.25;4.15;;;;;;;;;;5033150;28;20021;-78
2023/08/12 08:24:51;;;;;;;4.18;3.88;;;;;;;;;;5030280;28;20068;-78
2023/08/12 08:27:16;;;;;;;5.55;3.85;;;;;;;;;;5029615;28;20032;-77
2023/08/12 08:29:42;;;;;;;4.53;3.67;;;;;;;;;;5029613;28;20025;-77
2023/08/12 08:32:09;;;;;;;4.13;3.45;;;;;;;;;;5031177;28;20521;-76
2023/08/12 08:34:34;;;;;;;4.35;3.55;;;;;;;;;;5013817;28;20040;-77
2023/08/12 08:37:01;;;;;;;8.63;3.97;;;;;;;;;;5030038;28;20021;-77
2023/08/12 08:39:27;;;;;;;4.30;3.88;;;;;;;;;;5030577;28;20025;-78
2023/08/12 08:41:54;;;;;;;4.57;3.78;;;;;;;;;;5029137;28;20021;-80
2023/08/12 08:44:22;;;;;;;6.53;4.05;;;;;;;;;;5030837;28;20485;-78
2023/08/12 08:46:54;;;;;;;5.13;3.85;;;;;;;;;;5028737;28;20025;-79
2023/08/12 08:49:20;;;;;;;8.82;3.72;;;;;;;;;;5028551;28;20090;-79
2023/08/12 08:51:46;;;;;;;3.60;3.30;;;;;;;;;;5029847;28;20033;-79
2023/08/12 08:54:13;;;;;;;4.03;3.63;;;;;;;;;;5029610;28;20465;-79
2023/08/12 08:56:39;;;;;;;3.78;3.33;;;;;;;;;;5028335;28;20029;-79
2023/08/12 08:59:05;;;;;;;3.85;3.33;;;;;;;;;;5012839;28;20164;-78
2023/08/12 09:01:31;;;;;;;6.25;3.30;;;;;;;;;;5031020;28;20053;-78
2023/08/12 09:03:58;;;;;;;8.05;3.50;;;;;;;;;;5046248;28;20542;-78
2023/08/12 09:06:29;;;;;;;4.43;3.45;;;;;;;;;;5030393;28;20426;-78
2023/08/12 09:08:55;;;;;;;9.13;3.50;;;;;;;;;;5029521;28;20093;-79
2023/08/12 09:11:21;;;;;;;4.28;3.10;;;;;;;;;;5046561;28;20301;-79
2023/08/12 09:13:47;;;;;;;7.15;3.38;;;;;;;;;;5047086;28;20025;-79
2023/08/12 09:16:13;;;;;;;4.65;3.03;;;;;;;;;;5029388;28;20064;-78
2023/08/12 09:18:42;;;;;;;2.88;2.60;;;;;;;;;;5029595;28;20023;-78
2023/08/12 09:21:08;;;;;;;4.57;2.88;;;;;;;;;;5013976;28;20075;-79
2023/08/12 09:23:44;;;;;;;4.40;2.88;;;;;;;;;;5047831;28;20025;-79
2023/08/12 09:26:15;;;;;;;4.45;2.83;;;;;;;;;;5032147;28;20145;-79
2023/08/12 09:28:45;;;;;;;5.63;2.70;;;;;;;;;;5032302;28;20041;-79
2023/08/12 09:31:28;;;;;;;8.05;3.72;;;;;;;;;;5033099;28;20110;-81
2023/08/12 09:34:03;;;;;;;3.65;2.58;;;;;;;;;;5034385;28;20026;-79
2023/08/12 09:36:30;;;;;;;3.50;2.50;;;;;;;;;;5032417;28;20048;-79
2023/08/12 09:39:00;;;;;;;4.40;2.45;;;;;;;;;;5032671;28;20036;-77
2023/08/12 09:41:29;;;;;;;3.10;2.80;;;;;;;;;;5030607;28;20049;-79
2023/08/12 09:43:57;;;;;;;2.63;2.28;;;;;;;;;;5029016;28;20025;-79
2023/08/12 09:46:26;;;;;;;5.00;2.63;;;;;;;;;;5028958;28;20116;-79
2023/08/12 09:48:52;;;;;;;2.58;2.30;;;;;;;;;;5046386;28;20029;-80
2023/08/12 09:51:18;;;;;;;3.35;2.25;;;;;;;;;;5029360;28;20025;-80
2023/08/12 09:53:45;;;;;;;3.90;2.10;;;;;;;;;;5016363;28;20057;-80
2023/08/12 09:56:12;;;;;;;3.17;2.60;;;;;;;;;;5011876;28;20026;-81
2023/08/12 09:58:39;;;;;;;3.22;2.92;;;;;;;;;;5012299;28;20030;-79
2023/08/12 10:01:07;;;;;;;3.97;2.33;;;;;;;;;;5024272;28;20026;-80
2023/08/12 10:03:34;;;;;;;4.00;2.33;;;;;;;;;;5022207;28;20083;-79
2023/08/12 10:06:01;;;;;;;3.67;2.80;;;;;;;;;;5020554;28;20017;-79
2023/08/12 10:08:31;;;;;;;;;;;;;;;;;;5020732;28;20041;-79
2023/08/12 10:10:57;;;;;;;3.60;2.70;;;;;;;;;;5016617;28;19917;-77
2023/08/12 10:13:24;;;;;;;2.50;2.20;;;;;;;;;;5013888;28;20028;-79
2023/08/12 10:15:50;;;;;;;3.15;2.20;;;;;;;;;;5014126;28;20716;-78
2023/08/12 10:18:19;;;;;;;6.13;3.63;;;;;;;;;;5013962;28;20022;-76
2023/08/12 10:20:44;;;;;;;5.80;2.65;;;;;;;;;;5013992;28;20022;-77
2023/08/12 10:23:16;;;;;;;2.53;2.33;;;;;;;;;;5012318;28;20080;-77
2023/08/12 10:25:44;;;;;;;6.90;2.70;;;;;;;;;;5012024;28;20049;-77
2023/08/12 10:28:10;;;;;;;4.72;2.17;;;;;;;;;;5011833;28;20463;-77
2023/08/12 10:30:36;;;;;;;4.05;2.45;;;;;;;;;;5014377;28;20026;-77
2023/08/12 10:33:03;;;;;;;3.92;2.20;;;;;;;;;;5011868;28;20033;-77
2023/08/12 10:35:42;;;;;;;2.60;2.10;;;;;;;;;;5013136;28;20113;-76
2023/08/12 10:38:08;;;;;;;2.55;2.33;;;;;;;;;;5013549;28;20084;-76
2023/08/12 10:40:34;;;;;;;3.30;2.10;;;;;;;;;;5011497;28;20528;-77
2023/08/12 10:43:00;;;;;;;4.05;2.55;;;;;;;;;;5013691;28;20022;-77
2023/08/12 10:45:52;;;;;;;3.08;2.10;;;;;;;;;;5028188;28;20133;-78
2023/08/12 10:48:19;;;;;;;2.40;2.20;;;;;;;;;;5012890;28;20036;-76
2023/08/12 10:50:48;;;;;;;5.50;2.58;;;;;;;;;;4995176;28;20496;-77
2023/08/12 10:53:32;;;;;;;3.83;1.80;;;;;;;;;;5010988;28;20566;-77
2023/08/12 10:56:00;;;;;;;3.55;2.08;;;;;;;;;;5011450;28;20103;-77
2023/08/12 10:58:30;;;;;;;4.28;2.40;;;;;;;;;;5012814;28;20352;-77
2023/08/12 11:00:58;;;;;;;3.97;1.80;;;;;;;;;;5011100;28;20041;-77
2023/08/12 11:03:24;;;;;;;6.15;2.28;;;;;;;;;;5010948;28;20263;-76
2023/08/12 11:05:50;;;;;;;5.00;2.17;;;;;;;;;;5012360;28;20025;-77
2023/08/12 11:08:16;;;;;;;2.03;1.60;;;;;;;;;;5010975;28;20033;-76
2023/08/12 11:10:43;;;;;;;4.90;2.53;;;;;;;;;;5010105;28;20034;-77
2023/08/12 11:13:09;;;;;;;11.98;2.45;;;;;;;;;;5010499;28;20030;-77
2023/08/12 11:15:46;;;;;;;4.10;2.17;;;;;;;;;;5010986;28;20044;-77
2023/08/12 11:18:20;;;;;;;4.05;1.58;;;;;;;;;;5010618;28;20022;-76
2023/08/12 11:20:48;;;;;;;7.28;1.92;;;;;;;;;;4994083;28;20702;-78
2023/08/12 11:23:13;;;;;;;4.85;1.48;;;;;;;;;;5010436;28;20022;-76
2023/08/12 11:25:41;;;;;;;3.35;1.92;;;;;;;;;;5010095;28;20048;-77
2023/08/12 11:28:07;;;;;;;4.80;2.03;;;;;;;;;;5026397;28;20478;-78
2023/08/12 11:30:33;;;;;;;3.85;1.90;;;;;;;;;;5010619;28;20029;-76
2023/08/12 11:33:01;;;;;;;2.17;1.98;;;;;;;;;;5012192;28;20026;-78
2023/08/12 11:35:27;;;;;;;2.25;1.50;;;;;;;;;;5012110;28;20030;-77
2023/08/12 11:37:56;;;;;;;1.45;1.27;;;;;;;;;;5010712;28;20021;-78
2023/08/12 11:40:23;;;;;;;1.95;1.42;;;;;;;;;;5010382;28;20030;-77
2023/08/12 11:42:50;;;;;;;3.22;2.33;;;;;;;;;;5012155;28;20113;-76
2023/08/12 11:45:23;;;;;;;4.38;1.70;;;;;;;;;;5012379;28;20489;-77
2023/08/12 11:47:53;;;;;;;1.95;1.30;;;;;;;;;;4994001;28;20125;-77
2023/08/12 11:50:20;;;;;;;;;;;;;;;;;;4994615;28;20033;-77
2023/08/12 11:52:46;;;;;;;1.92;1.50;;;;;;;;;;5011971;28;20317;-77
2023/08/12 11:55:12;;;;;;;2.47;1.60;;;;;;;;;;5010245;28;20160;-76
2023/08/12 11:57:43;;;;;;;3.53;1.48;;;;;;;;;;5011928;28;20481;-76
2023/08/12 12:00:18;;;;;;;;;;;;;;;;;;5012480;28;20048;-77
2023/08/12 12:02:55;;;;;;;6.07;1.25;;;;;;;;;;5010855;28;19909;-77
2023/08/12 12:05:28;;;;;;;2.15;1.58;;;;;;;;;;5010334;28;20028;-76
2023/08/12 12:07:53;;;;;;;1.90;1.35;;;;;;;;;;5010344;28;20105;-76
2023/08/12 12:10:21;;;;;;;6.45;1.30;;;;;;;;;;5010095;28;20172;-76
2023/08/12 12:12:47;;;;;;;1.45;1.30;;;;;;;;;;5009498;28;20099;-76
2023/08/12 12:15:17;;;;;;;2.25;1.30;;;;;;;;;;5010967;28;20026;-81
2023/08/12 12:17:45;;;;;;;2.08;1.10;;;;;;;;;;5010548;28;20021;-80
2023/08/12 12:20:14;;;;;;;1.10;1.00;;;;;;;;;;5010427;28;20451;-80
2023/08/12 12:22:43;;;;;;;2.65;1.35;;;;;;;;;;5012344;28;20104;-80
2023/08/12 12:25:12;;;;;;;1.60;1.30;;;;;;;;;;5010018;28;20054;-79
2023/08/12 12:27:41;;;;;;;4.15;1.80;;;;;;;;;;5009903;28;20030;-80
2023/08/12 12:30:12;;;;;;;3.58;1.67;;;;;;;;;;5011017;28;20413;-81
2023/08/12 12:32:38;;;;;;;2.35;1.55;;;;;;;;;;5013209;28;20026;-82
2023/08/12 12:35:04;;;;;;;1.30;1.00;;;;;;;;;;5029203;28;20064;-82
2023/08/12 12:37:30;;;;;;;1.67;1.20;;;;;;;;;;5024371;28;20030;-83
2023/08/12 12:39:56;;;;;;;1.50;1.40;;;;;;;;;;5017031;28;20032;-80
2023/08/12 12:42:21;;;;;;;1.13;1.05;;;;;;;;;;5029304;28;20022;-79
2023/08/12 12:44:48;;;;;;;2.78;1.33;;;;;;;;;;5020166;28;20478;-80
2023/08/12 12:47:15;;;;;;;3.22;1.50;;;;;;;;;;5014521;28;20030;-81
2023/08/12 12:49:43;;;;;;;2.50;1.38;;;;;;;;;;5011545;28;20077;-79
2023/08/12 12:52:08;;;;;;;24.48;2.65;;;;;;;;;;5027759;28;20053;-80
2023/08/12 12:54:34;;;;;;;3.30;1.27;;;;;;;;;;5010928;28;20057;-80
2023/08/12 12:57:01;;;;;;;5.00;1.48;;;;;;;;;;5009862;28;20030;-81
2023/08/12 12:59:26;;;;;;;6.45;1.35;;;;;;;;;;5009307;28;20493;-81
2023/08/12 13:01:52;;;;;;;2.17;1.55;;;;;;;;;;5009525;28;20022;-80
2023/08/12 13:04:18;;;;;;;2.40;1.52;;;;;;;;;;5026325;28;20033;-80
2023/08/12 13:06:43;;;;;;;4.13;1.98;;;;;;;;;;5011590;28;20037;-81
2023/08/12 13:09:09;;;;;;;1.40;1.08;;;;;;;;;;5010534;28;20542;-81
2023/08/12 13:11:35;;;;;;;2.17;1.40;;;;;;;;;;5010393;28;20180;-80
2023/08/12 13:14:01;;;;;;;1.83;1.15;;;;;;;;;;4996125;28;20038;-81
2023/08/12 13:16:27;;;;;;;2.83;1.63;;;;;;;;;;5013267;28;20053;-81
2023/08/12 13:18:52;;;;;;;2.78;1.15;;;;;;;;;;5011531;28;20123;-81
2023/08/12 13:21:19;;;;;;;1.55;1.10;;;;;;;;;;5011565;28;20022;-82
2023/08/12 13:23:45;;;;;;;1.90;1.65;;;;;;;;;;5010756;28;20025;-81
2023/08/12 13:26:11;;;;;;;2.15;1.13;;;;;;;;;;5023812;28;20060;-81
2023/08/12 13:28:36;;;;;;;11.55;2.42;;;;;;;;;;5013037;28;20044;-81
2023/08/12 13:31:02;;;;;;;5.10;1.08;;;;;;;;;;5031054;28;20033;-79
2023/08/12 13:33:27;;;;;;;3.97;1.50;;;;;;;;;;5030948;28;20037;-82
2023/08/12 13:35:53;;;;;;;2.47;1.50;;;;;;;;;;5017317;28;20049;-80
2023/08/12 13:38:19;;;;;;;4.07;2.00;;;;;;;;;;5020200;28;20060;-79
2023/08/12 13:40:44;;;;;;;3.83;1.70;;;;;;;;;;5037047;28;20033;-79
2023/08/12 13:43:11;;;;;;;35.22;3.45;;;;;;;;;;5034473;28;20045;-81
2023/08/12 13:45:37;;;;;;;2.95;1.17;;;;;;;;;;5034077;28;20033;-81
2023/08/12 13:48:03;;;;;;;2.03;1.20;;;;;;;;;;5037024;28;20543;-81
2023/08/12 13:50:28;;;;;;;4.13;1.33;;;;;;;;;;5023574;28;20429;-81
2023/08/12 13:52:54;;;;;;;2.58;1.40;;;;;;;;;;5040765;28;20516;-81
2023/08/12 13:55:19;;;;;;;6.25;2.47;;;;;;;;;;5053872;28;20017;-77
2023/08/12 13:57:45;;;;;;;3.20;1.48;;;;;;;;;;5051802;28;20368;-80
2023/08/12 14:00:13;;;;;;;4.07;1.45;;;;;;;;;;5016438;28;20071;-80
2023/08/12 14:02:39;;;;;;;1.67;1.30;;;;;;;;;;5016294;28;20044;-80
2023/08/12 14:05:05;;;;;;;2.15;1.13;;;;;;;;;;5034581;28;20362;-81
2023/08/12 14:07:31;;;;;;;3.65;1.30;;;;;;;;;;5042142;28;20034;-80
2023/08/12 14:09:58;;;;;;;1.27;1.17;;;;;;;;;;5036272;28;20037;-81
2023/08/12 14:12:23;;;;;;;2.17;1.42;;;;;;;;;;5034610;28;20025;-80
2023/08/12 14:14:49;;;;;;;5.53;1.35;;;;;;;;;;5033267;28;20474;-82
2023/08/12 14:17:17;;;;;;;3.03;1.90;;;;;;;;;;5034262;28;20021;-77
2023/08/12 14:19:44;;;;;;;3.63;1.73;;;;;;;;;;5015935;28;20049;-80
2023/08/12 14:22:10;;;;;;;3.95;1.70;;;;;;;;;;5034748;28;20092;-82
2023/08/12 14:24:35;;;;;;;2.92;2.15;;;;;;;;;;5032774;28;20121;-81
2023/08/12 14:27:01;;;;;;;3.05;1.73;;;;;;;;;;5034617;28;20048;-81
2023/08/12 14:29:26;;;;;;;2.60;1.38;;;;;;;;;;5034257;28;20025;-81
2023/08/12 14:31:52;;;;;;;4.47;1.65;;;;;;;;;;5015883;28;20052;-81
2023/08/12 14:34:18;;;;;;;5.20;1.30;;;;;;;;;;5033214;28;20029;-82
2023/08/12 14:36:43;;;;;;;4.03;1.35;;;;;;;;;;5032007;28;20029;-80
2023/08/12 14:39:09;;;;;;;3.58;1.38;;;;;;;;;;5015605;28;20025;-82
2023/08/12 14:41:34;;;;;;;3.42;1.23;;;;;;;;;;5032125;28;20080;-80